Time;durP1;ratioP1;P1;durP2;ratioP2;P2;SDS_P1;SDS_P2;PMS_P1;PMS_P2;Temp;Humidity;BMP_temperature;BMP_pressure;BME280_temperature;BME280_humidity;BME280_pressure;Samples;Min_cycle;Max_cycle;Signal;HPM_P1;HPM_P2
2021/12/16 00:01:56;;;;;;;;;;;;;;;5.60;98.55;99525.05;1774634;80;25096;-84
2021/12/16 00:09:51;;;;;;;;;;;;;;;5.69;98.75;99533.83;1705764;82;25306;-84
2021/12/16 00:31:51;;;;;;;;;;;;;;;5.62;98.99;99512.41;1707340;83;21960;-84
2021/12/16 00:34:16;;;;;;;;;;;;;;;5.61;99.00;99505.54;1709279;83;26071;-85
2021/12/16 00:36:44;;;;;;;;;;;;;;;5.63;99.02;99513.26;1727690;82;24470;-85
2021/12/16 00:39:11;;;;;;;;;;;;;;;5.62;99.06;99512.41;1705178;83;20220;-85
2021/12/16 00:41:42;;;;;;;;;;;;;;;5.58;99.08;99515.16;1684058;83;26140;-85
2021/12/16 00:46:59;;;;;;;;;;;;;;;5.59;99.10;99513.81;1775434;80;26091;-85
2021/12/16 00:54:48;;;;;;;;;;;;;;;5.61;99.18;99524.16;1772468;80;25082;-84
2021/12/16 00:57:15;;;;;;;;;;;;;;;5.63;99.21;99522.34;1750357;80;21971;-85
2021/12/16 00:59:45;;;;;;;;;;;;;;;5.62;99.23;99516.30;1777459;80;25987;-85
2021/12/16 01:05:09;;;;;;;;;;;;;;;5.59;99.26;99516.41;1776677;79;20481;-85
2021/12/16 01:34:54;;;;;;;;;;;;;;;5.69;99.47;99529.49;1723521;81;25701;-84
2021/12/16 01:37:38;;;;;;;;;;;;;;;5.73;99.50;99529.78;1710986;83;22677;-85
2021/12/16 01:47:51;;;;;;;;;;;;;;;5.63;99.49;99513.26;1735028;81;24966;-85
2021/12/16 01:50:52;;;;;;;;;;;;;;;5.62;99.49;99507.21;1706535;83;22018;-84
2021/12/16 01:55:31;;;;;;;;;;;;;;;5.64;99.51;99507.17;1716037;82;25216;-84
2021/12/16 01:57:57;;;;;;;;;;;;;;;5.68;99.53;99509.61;1714046;82;20490;-84
2021/12/16 02:00:27;;;;;;;;;;;;;;;5.72;99.55;99508.63;1712391;82;25008;-84
2021/12/16 02:02:52;;;;;;;;;;;;;;;5.76;99.58;99502.88;1718119;82;21993;-84
2021/12/16 02:08:14;;;;;;;;;;;;;;;5.77;99.66;99499.38;1715600;82;25163;-84
2021/12/16 02:10:25;;;;;;;;;;;;;;;5.80;99.67;99497.97;1715524;82;20220;-85
2021/12/16 02:13:12;;;;;;;;;;;;;;;5.79;99.70;99501.02;1718932;83;25013;-84
2021/12/16 02:31:56;;;;;;;;;;;;;;;5.64;99.68;99507.17;1747100;79;26052;-85
2021/12/16 02:36:45;;;;;;;;;;;;;;;5.60;99.67;99496.05;1729892;81;20221;-85
2021/12/16 02:39:23;;;;;;;;;;;;;;;5.60;99.67;99492.59;1709361;83;25276;-85
2021/12/16 02:41:51;;;;;;;;;;;;;;;5.58;99.69;99486.59;1714272;83;22035;-85
2021/12/16 02:44:25;;;;;;;;;;;;;;;5.55;99.71;99479.77;1716756;82;25671;-85
2021/12/16 02:49:32;;;;;;;;;;;;;;;5.52;99.72;99481.59;1713098;82;20232;-85
2021/12/16 02:51:58;;;;;;;;;;;;;;;5.53;99.74;99475.52;1712632;82;25761;-85
2021/12/16 02:54:25;;;;;;;;;;;;;;;5.57;99.77;99477.95;1721304;82;22039;-86
2021/12/16 02:56:51;;;;;;;;;;;;;;;5.55;99.81;99475.02;1714701;83;26912;-85
2021/12/16 02:59:22;;;;;;;;;;;;;;;5.51;99.83;99478.15;1715139;83;20254;-85
2021/12/16 03:01:47;;;;;;;;;;;;;;;5.51;99.84;99477.33;1714046;82;20245;-86
2021/12/16 03:04:14;;;;;;;;;;;;;;;5.51;99.87;99478.62;1778617;79;24982;-85
2021/12/16 03:06:43;;;;;;;;;;;;;;;5.51;99.91;99478.62;1779145;79;21979;-85
2021/12/16 03:09:13;;;;;;;;;;;;;;;5.54;99.96;99477.22;1778483;80;25956;-85
2021/12/16 03:14:54;;;;;;;;;;;;;;;5.56;100.00;99474.13;1709631;83;20766;-85
2021/12/16 03:17:10;;;;;;;;;;;;;;;5.56;100.00;99474.13;1703382;83;25129;-85
2021/12/16 03:19:36;;;;;;;;;;;;;;;5.53;100.00;99473.77;1734509;80;22020;-85
2021/12/16 03:21:56;;;;;;;;;;;;;;;5.52;100.00;99475.96;1698838;83;25979;-85
2021/12/16 03:25:03;;;;;;;;;;;;;;;5.51;100.00;99468.25;1735414;81;24321;-85
2021/12/16 03:30:18;;;;;;;;;;;;;;;5.46;100.00;99467.92;1721848;82;25073;-85
2021/12/16 03:35:13;;;;;;;;;;;;;;;5.50;100.00;99467.84;1686520;83;23472;-85
2021/12/16 03:37:30;;;;;;;;;;;;;;;5.52;100.00;99469.91;1725617;81;24544;-85
2021/12/16 03:40:01;;;;;;;;;;;;;;;5.54;100.00;99478.07;1778002;79;20256;-85
2021/12/16 03:42:29;;;;;;;;;;;;;;;5.54;100.00;99473.32;1736084;82;25241;-85
2021/12/16 03:44:59;;;;;;;;;;;;;;;5.55;100.00;99477.17;1702325;83;21927;-85
2021/12/16 03:47:35;;;;;;;;;;;;;;;5.57;100.00;99479.70;1703318;83;26641;-85
2021/12/16 03:50:03;;;;;;;;;;;;;;;5.60;100.00;99486.11;1732247;82;24509;-85
2021/12/16 03:52:29;;;;;;;;;;;;;;;5.61;100.00;99480.88;1714109;82;20427;-85
2021/12/16 03:54:55;;;;;;;;;;;;;;;5.64;100.00;99479.45;1724432;81;25593;-85
2021/12/16 03:57:23;;;;;;;;;;;;;;;5.69;100.00;99480.59;1779171;80;22006;-85
2021/12/16 03:59:50;;;;;;;;;;;;;;;5.75;100.00;99484.29;1774752;80;26212;-85
2021/12/16 04:02:17;;;;;;;;;;;;;;;5.81;100.00;99481.49;1778495;80;24541;-85
2021/12/16 04:04:44;;;;;;;;;;;;;;;5.82;100.00;99478.85;1779215;79;20215;-85
2021/12/16 04:07:11;;;;;;;;;;;;;;;5.83;100.00;99487.05;1777451;80;20934;-85
2021/12/16 04:09:39;;;;;;;;;;;;;;;5.86;100.00;99479.59;1772638;80;20344;-85
2021/12/16 04:12:11;;;;;;;;;;;;;;;5.84;100.00;99487.42;1776453;80;26674;-85
2021/12/16 04:14:37;;;;;;;;;;;;;;;5.85;100.00;99486.97;1706533;83;25202;-85
2021/12/16 04:17:04;;;;;;;;;;;;;;;5.84;100.00;99483.52;1709080;83;20232;-85
2021/12/16 04:19:31;;;;;;;;;;;;;;;5.87;100.00;99487.81;1733507;81;25032;-85
2021/12/16 04:22:02;;;;;;;;;;;;;;;5.85;100.00;99488.27;1780865;80;22029;-85
2021/12/16 04:24:30;;;;;;;;;;;;;;;5.82;100.00;99487.09;1772608;80;26662;-85
2021/12/16 04:26:57;;;;;;;;;;;;;;;5.80;100.00;99492.33;1777865;80;24424;-86
2021/12/16 04:29:24;;;;;;;;;;;;;;;5.79;100.00;99488.48;1774106;80;20195;-85
2021/12/16 04:31:51;;;;;;;;;;;;;;;5.74;100.00;99491.23;1775651;80;25050;-86
2021/12/16 04:34:17;;;;;;;;;;;;;;;5.71;100.00;99488.75;1776336;80;21967;-85
2021/12/16 04:36:43;;;;;;;;;;;;;;;5.72;100.00;99493.50;1783124;80;26762;-85
2021/12/16 04:39:12;;;;;;;;;;;;;;;5.73;100.00;99497.32;1775372;80;24627;-85
2021/12/16 04:41:40;;;;;;;;;;;;;;;5.76;100.00;99506.77;1776669;80;20318;-85
2021/12/16 04:44:14;;;;;;;;;;;;;;;5.79;100.00;99511.85;1776252;79;24939;-85
2021/12/16 04:46:41;;;;;;;;;;;;;;;5.82;100.00;99506.13;1734918;82;21959;-85
2021/12/16 04:49:08;;;;;;;;;;;;;;;5.86;100.00;99509.01;1723351;82;25472;-85
2021/12/16 04:51:36;;;;;;;;;;;;;;;5.90;100.00;99511.08;1724323;82;24525;-85
2021/12/16 04:54:02;;;;;;;;;;;;;;;5.95;100.00;99511.77;1734383;81;20279;-85
2021/12/16 04:56:29;;;;;;;;;;;;;;;5.93;100.00;99511.44;1776118;80;25001;-85
2021/12/16 04:58:59;;;;;;;;;;;;;;;5.97;100.00;99516.47;1728756;81;21713;-85
2021/12/16 05:01:25;;;;;;;;;;;;;;;6.07;100.00;99519.59;1703983;83;26816;-85
2021/12/16 05:03:51;;;;;;;;;;;;;;;6.11;100.00;99524.63;1704882;83;24501;-85
2021/12/16 05:06:20;;;;;;;;;;;;;;;6.16;100.00;99514.95;1729193;81;20227;-85
2021/12/16 05:08:46;;;;;;;;;;;;;;;6.16;100.00;99512.36;1714003;83;25316;-85
2021/12/16 05:11:14;;;;;;;;;;;;;;;6.14;100.00;99511.55;1707872;82;22146;-85
2021/12/16 05:13:41;;;;;;;;;;;;;;;6.10;100.00;99511.27;1707019;83;26058;-86
2021/12/16 05:16:07;;;;;;;;;;;;;;;6.08;100.00;99519.55;1703670;82;24422;-85
2021/12/16 05:18:36;;;;;;;;;;;;;;;6.09;100.00;99519.11;1705756;83;20273;-85
2021/12/16 05:21:04;;;;;;;;;;;;;;;6.11;100.00;99520.73;1704165;83;25151;-85
2021/12/16 05:26:20;;;;;;;;;;;;;;;6.14;100.00;99529.74;1772092;80;26193;-85
2021/12/16 05:28:47;;;;;;;;;;;;;;;6.16;100.00;99526.66;1774899;80;24476;-85
2021/12/16 05:31:14;;;;;;;;;;;;;;;6.12;100.00;99526.34;1779983;80;20260;-85
2021/12/16 05:33:42;;;;;;;;;;;;;;;6.08;100.00;99527.35;1746602;81;20281;-85
2021/12/16 05:36:08;;;;;;;;;;;;;;;6.02;100.00;99524.95;1774523;80;21728;-85
2021/12/16 05:38:34;;;;;;;;;;;;;;;5.98;100.00;99529.02;1725064;82;26076;-85
2021/12/16 05:41:01;;;;;;;;;;;;;;;5.94;100.00;99528.28;1719926;82;25228;-85
2021/12/16 05:43:28;;;;;;;;;;;;;;;5.92;100.00;99529.22;1775198;79;20453;-85
2021/12/16 05:45:55;;;;;;;;;;;;;;;5.92;100.00;99524.88;1780959;80;24963;-85
2021/12/16 05:48:24;;;;;;;;;;;;;;;5.96;100.00;99531.66;1771617;80;21898;-85
2021/12/16 05:50:52;;;;;;;;;;;;;;;6.00;100.00;99534.54;1718633;82;26216;-86
2021/12/16 05:53:19;;;;;;;;;;;;;;;6.01;100.00;99536.69;1728342;82;25310;-85
2021/12/16 05:55:45;;;;;;;;;;;;;;;6.03;100.00;99530.56;1732848;81;20254;-85
2021/12/16 05:58:17;;;;;;;;;;;;;;;6.06;100.00;99529.14;1708516;83;20292;-85
2021/12/16 06:00:41;;;;;;;;;;;;;;;6.03;100.00;99530.56;1704367;83;21980;-85
2021/12/16 06:03:07;;;;;;;;;;;;;;;5.98;100.00;99527.72;1707516;82;26034;-85
2021/12/16 06:05:35;;;;;;;;;;;;;;;5.94;100.00;99524.38;1780745;80;20155;-86
2021/12/16 06:08:05;;;;;;;;;;;;;;;5.94;100.00;99524.83;1780998;80;20286;-85
2021/12/16 06:13:12;;;;;;;;;;;;;;;5.88;100.00;99529.34;1721508;82;22021;-85
2021/12/16 06:26:33;;;;;;;;;;;;;;;5.94;100.00;99534.78;1701142;83;22124;-85
2021/12/16 06:28:54;;;;;;;;;;;;;;;5.94;100.00;99533.92;1720640;82;26087;-84
2021/12/16 06:31:21;;;;;;;;;;;;;;;5.91;100.00;99530.11;1722783;81;24454;-85
2021/12/16 06:33:47;;;;;;;;;;;;;;;5.93;100.00;99529.63;1696539;83;20270;-85
2021/12/16 06:36:13;;;;;;;;;;;;;;;5.91;100.00;99536.61;1727536;81;25019;-85
2021/12/16 06:38:39;;;;;;;;;;;;;;;5.93;100.00;99531.77;1703535;83;22058;-85
2021/12/16 06:41:06;;;;;;;;;;;;;;;5.91;100.00;99534.86;1699080;83;21030;-85
2021/12/16 06:43:33;;;;;;;;;;;;;;;5.91;100.00;99532.71;1730386;82;24536;-85
2021/12/16 06:46:05;;;;;;;;;;;;;;;5.85;100.00;99534.58;1706928;83;20360;-84
2021/12/16 06:48:34;;;;;;;;;;;;;;;5.82;100.00;99531.25;1702739;83;24928;-84
2021/12/16 06:51:07;;;;;;;;;;;;;;;5.81;100.00;99537.34;1729916;81;22724;-85
2021/12/16 06:53:46;;;;;;;;;;;;;;;5.80;100.00;99538.23;1708169;83;26179;-84
2021/12/16 06:56:05;;;;;;;;;;;;;;;5.81;100.00;99534.30;1699121;83;24509;-85
2021/12/16 07:01:14;;;;;;;;;;;;;;;5.79;100.00;99536.53;1707442;83;25576;-85
2021/12/16 07:03:49;;;;;;;;;;;;;;;5.78;100.00;99536.16;1721169;82;21980;-84
2021/12/16 07:06:20;;;;;;;;;;;;;;;5.79;100.00;99533.48;1682647;83;26257;-85
2021/12/16 07:08:48;;;;;;;;;;;;;;;5.81;100.00;99538.64;1712008;83;25154;-85
2021/12/16 07:11:14;;;;;;;;;;;;;;;5.81;100.00;99541.23;1731589;81;20249;-85
2021/12/16 07:13:42;;;;;;;;;;;;;;;5.78;100.00;99538.75;1713053;82;25220;-85
2021/12/16 07:16:10;;;;;;;;;;;;;;;5.80;100.00;99544.72;1703997;83;21973;-84
2021/12/16 07:18:36;;;;;;;;;;;;;;;5.84;100.00;99550.20;1776356;80;26070;-85
2021/12/16 07:21:03;;;;;;;;;;;;;;;5.86;100.00;99553.62;1775625;79;24385;-84
2021/12/16 07:23:29;;;;;;;;;;;;;;;5.88;100.00;99550.12;1778448;79;20151;-85
2021/12/16 07:25:56;;;;;;;;;;;;;;;5.90;100.00;99553.94;1778592;79;25051;-85
2021/12/16 07:28:22;;;;;;;;;;;;;;;5.89;100.00;99549.19;1776726;80;21831;-85
2021/12/16 07:30:48;;;;;;;;;;;;;;;5.91;100.00;99547.00;1774381;80;26009;-84
2021/12/16 07:33:16;;;;;;;;;;;;;;;5.93;100.00;99546.06;1777087;80;25168;-84
2021/12/16 07:35:43;;;;;;;;;;;;;;;5.93;100.00;99544.77;1776927;80;20268;-84
2021/12/16 07:38:09;;;;;;;;;;;;;;;5.94;100.00;99541.27;1775322;80;25114;-85
2021/12/16 07:40:36;;;;;;;;;;;;;;;5.98;100.00;99540.70;1775838;80;21960;-84
2021/12/16 07:45:33;;;;;;;;;;;;;;;6.00;100.00;99541.04;1724773;82;24535;-84
2021/12/16 07:48:03;;;;;;;;;;;;;;;6.00;100.00;99539.73;1702859;83;20226;-85
2021/12/16 07:50:30;;;;;;;;;;;;;;;6.01;100.00;99540.14;1777276;80;25044;-84
2021/12/16 07:52:59;;;;;;;;;;;;;;;6.03;100.00;99542.25;1779366;79;21821;-85
2021/12/16 07:55:25;;;;;;;;;;;;;;;6.04;100.00;99543.10;1776178;80;21048;-84
2021/12/16 07:57:51;;;;;;;;;;;;;;;6.05;100.00;99548.26;1778038;80;24423;-85
2021/12/16 08:00:19;;;;;;;;;;;;;;;6.07;100.00;99552.93;1778843;80;20354;-85
2021/12/16 08:02:45;;;;;;;;;;;;;;;6.11;100.00;99552.40;1778994;79;24970;-85
2021/12/16 08:05:16;;;;;;;;;;;;;;;6.11;100.00;99553.70;1778904;80;22119;-84
2021/12/16 08:07:40;;;;;;;;;;;;;;;6.09;100.00;99553.74;1772321;80;26733;-84
2021/12/16 08:10:08;;;;;;;;;;;;;;;6.09;100.00;99555.48;1775539;80;24442;-85
2021/12/16 08:12:34;;;;;;;;;;;;;;;6.11;100.00;99564.91;1776467;80;20223;-84
2021/12/16 08:15:00;;;;;;;;;;;;;;;6.13;100.00;99551.87;1721629;82;24969;-85
2021/12/16 08:17:28;;;;;;;;;;;;;;;6.11;100.00;99550.63;1718259;82;20498;-85
2021/12/16 08:19:59;;;;;;;;;;;;;;;6.10;100.00;99543.75;1774454;79;26806;-85
2021/12/16 08:22:22;;;;;;;;;;;;;;;6.10;100.00;99543.75;1771877;80;24034;-85
2021/12/16 08:24:51;;;;;;;;;;;;;;;6.08;100.00;99555.09;1751177;80;20281;-85
2021/12/16 08:27:17;;;;;;;;;;;;;;;6.07;100.00;99555.53;1774645;80;25156;-85
2021/12/16 08:29:45;;;;;;;;;;;;;;;6.09;100.00;99560.69;1778606;80;21957;-84
2021/12/16 08:32:20;;;;;;;;;;;;;;;6.07;100.00;99563.77;1774897;79;26922;-85
2021/12/16 08:34:46;;;;;;;;;;;;;;;6.05;100.00;99561.70;1774285;80;24521;-85
2021/12/16 08:37:15;;;;;;;;;;;;;;;6.07;100.00;99557.28;1780481;80;20418;-84
2021/12/16 08:39:46;;;;;;;;;;;;;;;6.10;100.00;99554.59;1779222;80;25863;-85
2021/12/16 08:42:11;;;;;;;;;;;;;;;6.11;100.00;99550.63;1769874;80;20186;-85
2021/12/16 08:44:38;;;;;;;;;;;;;;;6.14;100.00;99547.94;1778302;80;26010;-85
2021/12/16 08:47:06;;;;;;;;;;;;;;;6.17;100.00;99554.31;1778631;80;25372;-85
2021/12/16 08:49:32;;;;;;;;;;;;;;;6.22;100.00;99562.80;1775233;79;20258;-84
2021/12/16 08:52:04;;;;;;;;;;;;;;;6.27;100.00;99553.58;1773754;79;25819;-85
2021/12/16 08:54:27;;;;;;;;;;;;;;;6.35;100.00;99563.23;1777407;80;22148;-85
2021/12/16 08:56:53;;;;;;;;;;;;;;;6.42;100.00;99573.83;1776803;80;26205;-85
2021/12/16 08:59:20;;;;;;;;;;;;;;;6.52;100.00;99571.75;1777248;80;24500;-85
2021/12/16 09:01:48;;;;;;;;;;;;;;;6.58;100.00;99576.73;1776444;80;20272;-85
2021/12/16 09:04:16;;;;;;;;;;;;;;;6.60;100.00;99573.64;1734675;81;24981;-84
2021/12/16 09:06:43;;;;;;;;;;;;;;;6.57;100.00;99568.53;1710151;82;21978;-85
2021/12/16 09:09:09;;;;;;;;;;;;;;;6.57;100.00;99571.13;1714202;82;26964;-84
2021/12/16 09:11:41;;;;;;;;;;;;;;;6.55;100.00;99570.33;1714431;82;24722;-85
2021/12/16 09:14:03;;;;;;;;;;;;;;;6.52;100.00;99567.84;1714470;82;20243;-84
2021/12/16 09:16:30;;;;;;;;;;;;;;;6.46;100.00;99565.46;1711423;82;24933;-85
2021/12/16 09:18:57;;;;;;;;;;;;;;;6.41;100.00;99558.28;1780044;80;22068;-85
2021/12/16 09:21:25;;;;;;;;;;;;;;;6.37;100.00;99548.45;1780235;80;26033;-85
2021/12/16 09:23:56;;;;;;;;;;;;;;;6.36;100.00;99549.79;1775877;80;24494;-85
2021/12/16 09:26:22;;;;;;;;;;;;;;;6.37;100.00;99550.20;1777536;80;20392;-85
2021/12/16 09:28:50;;;;;;;;;;;;;;;6.39;100.00;99545.77;1780572;80;25596;-84
2021/12/16 09:31:21;;;;;;;;;;;;;;;6.39;100.00;99540.57;1772880;79;22131;-84
2021/12/16 09:33:50;;;;;;;;;;;;;;;6.40;100.00;99539.22;1775792;80;26731;-85
2021/12/16 09:36:17;;;;;;;;;;;;;;;6.41;100.00;99544.83;1777001;79;24423;-85
2021/12/16 09:38:44;;;;;;;;;;;;;;;6.42;100.00;99540.48;1766457;80;20234;-84
2021/12/16 09:41:10;;;;;;;;;;;;;;;6.45;100.00;99545.56;1773859;80;25060;-85
2021/12/16 09:43:38;;;;;;;;;;;;;;;6.48;100.00;99540.27;1772481;80;20261;-85
2021/12/16 09:46:06;;;;;;;;;;;;;;;6.52;100.00;99545.75;1734831;81;25977;-84
2021/12/16 09:48:33;;;;;;;;;;;;;;;6.56;100.00;99534.32;1724568;81;25260;-84
2021/12/16 09:51:00;;;;;;;;;;;;;;;6.57;100.00;99536.87;1718066;83;20300;-85
2021/12/16 09:53:31;;;;;;;;;;;;;;;6.59;100.00;99533.78;1702274;83;25229;-85
2021/12/16 09:55:59;;;;;;;;;;;;;;;6.60;100.00;99534.63;1709203;83;22020;-85
2021/12/16 09:58:23;;;;;;;;;;;;;;;6.68;100.00;99532.59;1695510;83;26359;-85
2021/12/16 10:00:52;;;;;;;;;;;;;;;6.76;100.00;99533.62;1718229;81;24496;-85
2021/12/16 10:03:18;;;;;;;;;;;;;;;6.83;100.00;99526.81;1725668;81;20470;-85
2021/12/16 10:05:44;;;;;;;;;;;;;;;6.87;100.00;99519.76;1776863;80;25038;-85
2021/12/16 10:08:12;;;;;;;;;;;;;;;6.90;100.00;99523.53;1767604;80;20227;-85
2021/12/16 10:10:38;;;;;;;;;;;;;;;6.96;100.00;99524.16;1776157;80;26075;-85
2021/12/16 10:13:06;;;;;;;;;;;;;;;7.00;100.00;99519.22;1777478;79;20229;-85
2021/12/16 10:18:12;;;;;;;;;;;;;;;7.07;100.00;99518.55;1727466;81;24275;-85
2021/12/16 10:20:40;;;;;;;;;;;;;;;7.10;100.00;99506.25;1713321;82;22106;-85
2021/12/16 10:23:08;;;;;;;;;;;;;;;7.11;100.00;99503.20;1729281;81;26671;-85
2021/12/16 10:25:36;;;;;;;;;;;;;;;7.15;100.00;99497.80;1711979;83;24464;-86
2021/12/16 10:28:13;;;;;;;;;;;;;;;7.19;100.00;99497.70;1749240;80;20500;-85
2021/12/16 10:30:41;;;;;;;;;;;;;;;7.19;100.00;99499.86;1735800;81;24449;-85
2021/12/16 10:33:16;;;;;;;;;;;;;;;7.21;100.00;99499.77;1777291;80;22035;-84
2021/12/16 10:35:41;;;;;;;;;;;;;;;7.22;100.00;99492.36;1780570;79;26127;-85
2021/12/16 10:38:08;;;;;;;;;;;;;;;7.22;100.00;99486.70;1784007;80;25760;-85
2021/12/16 10:40:44;;;;;;;;;;;;;;;7.26;100.00;99488.72;1775899;80;20139;-85
2021/12/16 10:43:15;;;;;;;;;;;;;;;7.28;100.00;99488.22;1770584;80;24941;-85
2021/12/16 10:45:49;;;;;;;;;;;;;;;7.28;100.00;99486.47;1773593;80;22084;-84
2021/12/16 10:48:19;;;;;;;;;;;;;;;7.27;100.00;99481.31;1727840;82;26618;-84
2021/12/16 10:50:50;;;;;;;;;;;;;;;7.30;100.00;99490.31;1701662;82;24674;-85
2021/12/16 10:53:17;;;;;;;;;;;;;;;7.35;100.00;99497.48;1775766;80;20255;-85
2021/12/16 10:55:59;;;;;;;;;;;;;;;7.35;100.00;99500.09;1777038;80;25052;-86
2021/12/16 10:58:43;;;;;;;;;;;;;;;7.36;100.00;99501.80;1776683;79;21957;-84
2021/12/16 11:01:28;;;;;;;;;;;;;;;7.36;100.00;99503.09;1776626;79;26162;-84
2021/12/16 11:03:54;;;;;;;;;;;;;;;7.35;100.00;99507.91;1720587;82;24445;-84
2021/12/16 11:06:27;;;;;;;;;;;;;;;7.31;100.00;99512.84;1725324;82;20523;-84
2021/12/16 11:08:56;;;;;;;;;;;;;;;7.29;100.00;99512.05;1774559;80;25020;-85
2021/12/16 11:11:30;;;;;;;;;;;;;;;7.21;100.00;99517.55;1779601;80;22629;-85
2021/12/16 11:14:04;;;;;;;;;;;;;;;7.14;100.00;99517.41;1777810;80;26027;-85
2021/12/16 11:16:35;;;;;;;;;;;;;;;7.08;100.00;99521.09;1727585;82;24514;-84
2021/12/16 11:19:01;;;;;;;;;;;;;;;7.02;100.00;99521.33;1725122;82;20237;-84
2021/12/16 11:21:40;;;;;;;;;;;;;;;6.98;100.00;99518.91;1708807;82;25056;-85
2021/12/16 11:24:03;;;;;;;;;;;;;;;6.98;100.00;99511.09;1720776;82;22283;-84
2021/12/16 11:26:32;;;;;;;;;;;;;;;6.99;100.00;99515.38;1701081;83;26052;-84
2021/12/16 11:28:58;;;;;;;;;;;;;;;6.97;100.00;99507.64;1726084;82;24607;-85
2021/12/16 11:31:27;;;;;;;;;;;;;;;6.94;100.00;99518.16;1778044;80;20521;-85
2021/12/16 11:33:54;;;;;;;;;;;;;;;6.88;100.00;99519.68;1772096;80;25051;-84
2021/12/16 11:36:22;;;;;;;;;;;;;;;6.87;100.00;99521.06;1776704;80;21994;-85
2021/12/16 11:38:54;;;;;;;;;;;;;;;6.87;100.00;99519.76;1777412;80;26018;-84
2021/12/16 11:41:28;;;;;;;;;;;;;;;6.88;100.00;99520.13;1768466;80;25157;-84
2021/12/16 11:43:58;;;;;;;;;;;;;;;6.90;100.00;99521.78;1779700;80;20240;-85
2021/12/16 11:46:29;;;;;;;;;;;;;;;6.88;100.00;99525.33;1727700;82;25082;-85
2021/12/16 11:49:01;;;;;;;;;;;;;;;6.83;100.00;99517.70;1729369;82;22046;-85
2021/12/16 11:51:32;;;;;;;;;;;;;;;6.81;100.00;99526.04;1723947;82;26093;-84
2021/12/16 11:54:00;;;;;;;;;;;;;;;6.77;100.00;99525.73;1719295;82;24530;-85
2021/12/16 11:56:43;;;;;;;;;;;;;;;6.75;100.00;99526.27;1710553;81;20544;-84
2021/12/16 11:59:11;;;;;;;;;;;;;;;6.76;100.00;99530.56;1699621;83;24948;-85
2021/12/16 12:01:40;;;;;;;;;;;;;;;6.73;100.00;99522.41;1731831;81;21353;-85
2021/12/16 12:04:07;;;;;;;;;;;;;;;6.73;100.00;99526.31;1776966;80;26020;-85
2021/12/16 12:06:34;;;;;;;;;;;;;;;6.73;100.00;99521.11;1778329;79;25379;-85
2021/12/16 12:09:01;;;;;;;;;;;;;;;6.73;100.00;99528.06;1777044;80;20206;-85
2021/12/16 12:11:29;;;;;;;;;;;;;;;6.70;100.00;99529.48;1776739;80;25677;-85
2021/12/16 12:14:00;;;;;;;;;;;;;;;6.70;100.00;99526.89;1722974;82;21988;-84
2021/12/16 12:16:27;;;;;;;;;;;;;;;6.68;100.00;99525.63;1773352;80;27699;-85
2021/12/16 12:18:55;;;;;;;;;;;;;;;6.67;100.00;99513.97;1734310;82;24446;-85
2021/12/16 12:21:23;;;;;;;;;;;;;;;6.67;100.00;99519.17;1717562;82;20219;-85
2021/12/16 12:23:51;;;;;;;;;;;;;;;6.65;100.00;99523.16;1707564;83;24995;-85
2021/12/16 12:26:18;;;;;;;;;;;;;;;6.65;100.00;99523.16;1715748;82;21699;-85
2021/12/16 12:28:46;;;;;;;;;;;;;;;6.66;100.00;99527.87;1706824;82;26235;-85
2021/12/16 12:31:13;;;;;;;;;;;;;;;6.65;100.00;99524.45;1702948;84;24604;-85
2021/12/16 12:33:39;;;;;;;;;;;;;;;6.59;100.00;99511.67;1714328;82;20483;-85
2021/12/16 12:36:08;;;;;;;;;;;;;;;6.58;100.00;99509.97;1701479;82;20743;-85
2021/12/16 12:38:36;;;;;;;;;;;;;;;6.57;100.00;99508.72;1758431;80;22374;-85
2021/12/16 12:41:03;;;;;;;;;;;;;;;6.54;100.00;99504.50;1766268;80;25965;-85
2021/12/16 12:43:29;;;;;;;;;;;;;;;6.53;100.00;99498.89;1773223;80;24202;-85
2021/12/16 12:46:00;;;;;;;;;;;;;;;6.52;100.00;99500.23;1776838;80;20330;-85
2021/12/16 12:48:26;;;;;;;;;;;;;;;6.53;100.00;99498.04;1775771;80;25036;-86
2021/12/16 12:50:55;;;;;;;;;;;;;;;6.53;100.00;99499.34;1769689;80;22070;-85
2021/12/16 12:53:23;;;;;;;;;;;;;;;6.53;100.00;99500.64;1776799;80;26224;-86
2021/12/16 12:55:51;;;;;;;;;;;;;;;6.54;100.00;99500.59;1763056;80;24995;-85
2021/12/16 12:58:18;;;;;;;;;;;;;;;6.52;100.00;99501.09;1722987;82;20538;-85
2021/12/16 13:00:46;;;;;;;;;;;;;;;6.53;100.00;99503.24;1779430;80;25021;-85
2021/12/16 13:03:17;;;;;;;;;;;;;;;6.52;100.00;99495.89;1775164;80;22056;-85
2021/12/16 13:05:54;;;;;;;;;;;;;;;6.52;100.00;99493.73;1774316;79;26051;-85
2021/12/16 13:08:28;;;;;;;;;;;;;;;6.51;100.00;99491.59;1774569;79;24492;-85
2021/12/16 13:10:56;;;;;;;;;;;;;;;6.53;100.00;99491.54;1773364;79;20305;-85
2021/12/16 13:16:01;;;;;;;;;;;;;;;6.48;100.00;99490.86;1779328;80;21842;-85
2021/12/16 13:26:39;;;;;;;;;;;;;;;6.49;100.00;99504.27;1703483;82;24917;-85
2021/12/16 13:29:26;;;;;;;;;;;;;;;6.50;100.00;99516.34;1718786;82;22013;-84
2021/12/16 13:31:49;;;;;;;;;;;;;;;6.50;100.00;99515.03;1714094;82;25874;-85
2021/12/16 13:34:26;;;;;;;;;;;;;;;6.47;100.00;99508.66;1713840;82;25314;-85
2021/12/16 13:36:57;;;;;;;;;;;;;;;6.46;100.00;99515.61;1714571;83;20212;-84
2021/12/16 13:39:23;;;;;;;;;;;;;;;6.45;100.00;99520.41;1713327;82;25087;-85
2021/12/16 13:41:53;;;;;;;;;;;;;;;6.43;100.00;99533.94;1718945;82;21830;-85
2021/12/16 13:44:23;;;;;;;;;;;;;;;6.46;100.00;99531.21;1714217;82;26096;-85
2021/12/16 13:47:14;;;;;;;;;;;;;;;6.48;100.00;99520.77;1729896;82;24911;-85
2021/12/16 14:05:56;;;;;;;;;;;;;;;6.51;100.00;99516.29;1776769;80;24985;-85
2021/12/16 14:08:34;;;;;;;;;;;;;;;6.51;100.00;99519.34;1773557;80;22106;-85
2021/12/16 14:11:15;;;;;;;;;;;;;;;6.49;100.00;99532.39;1774820;80;26017;-85
2021/12/16 14:25:11;;;;;;;;;;;;;;;6.45;100.00;99517.80;1765061;80;26222;-85
2021/12/16 14:34:02;;;;;;;;;;;;;;;6.39;100.00;99544.02;1733003;80;25001;-85
2021/12/16 14:35:30;;;;;;;;;;;;;;;6.37;100.00;99548.45;1774472;80;22098;-85
2021/12/16 14:38:06;;;;;;;;;;;;;;;6.38;100.00;99557.09;1780379;80;21617;-85
2021/12/16 14:41:04;;;;;;;;;;;;;;;6.36;100.00;99549.34;1772980;80;24476;-85
2021/12/16 14:43:34;;;;;;;;;;;;;;;6.34;100.00;99542.03;1768349;80;20178;-84
2021/12/16 14:45:57;;;;;;;;;;;;;;;6.33;100.00;99544.71;1775846;80;24410;-85
2021/12/16 14:48:24;;;;;;;;;;;;;;;6.34;100.00;99542.48;1778574;80;22013;-84
2021/12/16 14:50:53;;;;;;;;;;;;;;;6.33;100.00;99548.12;1772115;80;26088;-85
2021/12/16 14:53:25;;;;;;;;;;;;;;;6.33;100.00;99548.12;1774109;80;24533;-84
2021/12/16 14:56:01;;;;;;;;;;;;;;;6.33;100.00;99556.41;1710244;82;20466;-85
2021/12/16 14:58:27;;;;;;;;;;;;;;;6.32;100.00;99552.11;1704132;83;25000;-84
2021/12/16 15:00:55;;;;;;;;;;;;;;;6.29;100.00;99546.55;1736999;81;21960;-85
2021/12/16 15:03:23;;;;;;;;;;;;;;;6.26;100.00;99547.52;1702143;83;26001;-84
2021/12/16 15:05:51;;;;;;;;;;;;;;;6.26;100.00;99548.82;1778258;80;24653;-84
2021/12/16 15:08:24;;;;;;;;;;;;;;;6.26;100.00;99550.13;1774192;80;20227;-85
2021/12/16 15:10:46;;;;;;;;;;;;;;;6.24;100.00;99551.91;1726504;82;25664;-84
2021/12/16 15:13:32;;;;;;;;;;;;;;;6.24;100.00;99553.66;1733005;82;20262;-84
2021/12/16 15:16:08;;;;;;;;;;;;;;;6.22;100.00;99561.95;1705516;83;26115;-85
2021/12/16 15:42:53;;;;;;;;;;;;;;;6.36;100.00;99576.64;1780027;80;26048;-84
2021/12/16 15:45:37;;;;;;;;;;;;;;;6.37;100.00;99583.99;1755347;80;38600;-84
2021/12/16 15:48:11;;;;;;;;;;;;;;;6.38;100.00;99574.00;1735007;82;20226;-85
2021/12/16 15:50:45;;;;;;;;;;;;;;;6.38;100.00;99568.80;1695804;83;24962;-84
2021/12/16 15:53:13;;;;;;;;;;;;;;;6.38;100.00;99570.95;1727054;82;22133;-84
2021/12/16 15:55:43;;;;;;;;;;;;;;;6.39;100.00;99574.37;1702350;83;26065;-84
2021/12/16 15:58:21;;;;;;;;;;;;;;;6.41;100.00;99576.48;1729414;82;24430;-84
2021/12/16 16:00:46;;;;;;;;;;;;;;;6.41;100.00;99575.17;1707141;83;20478;-84
2021/12/16 16:03:14;;;;;;;;;;;;;;;6.39;100.00;99572.62;1703488;82;25163;-84
2021/12/16 16:05:45;;;;;;;;;;;;;;;6.40;100.00;99578.67;1728518;81;22204;-85
2021/12/16 16:08:13;;;;;;;;;;;;;;;6.41;100.00;99585.12;1707791;83;26110;-84
2021/12/16 16:10:40;;;;;;;;;;;;;;;6.42;100.00;99586.83;1776692;79;24533;-85
2021/12/16 16:13:08;;;;;;;;;;;;;;;6.44;100.00;99583.70;1776005;80;20147;-84
2021/12/16 16:15:34;;;;;;;;;;;;;;;6.44;100.00;99581.55;1778207;79;25859;-85